createdAt,value
2023-05-10T00:03:48.138Z,20.21
2023-05-10T00:08:51.428Z,20.21
2023-05-10T00:13:53.497Z,20.14
2023-05-10T00:18:55.540Z,20.06
2023-05-10T00:23:57.772Z,19.91
2023-05-10T00:28:59.801Z,19.77
2023-05-10T00:34:01.868Z,19.72
2023-05-10T00:39:04.787Z,19.59
2023-05-10T00:44:06.963Z,19.58
2023-05-10T00:49:09.250Z,19.40
2023-05-10T00:54:15.701Z,19.32
2023-05-10T00:59:18.938Z,19.24
2023-05-10T01:04:26.565Z,19.31
2023-05-10T01:09:29.058Z,19.21
2023-05-10T01:14:31.461Z,19.14
2023-05-10T01:19:36.153Z,18.98
2023-05-10T01:25:05.784Z,19.02
2023-05-10T01:30:17.891Z,18.97
2023-05-10T01:35:36.715Z,18.59
2023-05-10T01:41:01.853Z,18.55
2023-05-10T01:46:11.741Z,18.65
2023-05-10T01:51:16.719Z,18.60
2023-05-10T01:56:22.583Z,18.51
2023-05-10T02:01:25.537Z,18.45
2023-05-10T02:06:28.544Z,18.40
2023-05-10T02:11:31.295Z,18.21
2023-05-10T02:16:33.594Z,18.30
2023-05-10T02:21:36.593Z,18.19
2023-05-10T02:26:39.530Z,18.10
2023-05-10T02:31:44.694Z,18.07
2023-05-10T02:36:47.357Z,18.01
2023-05-10T02:41:51.764Z,17.90
2023-05-10T02:46:53.755Z,17.71
2023-05-10T02:51:59.622Z,17.60
2023-05-10T02:57:05.656Z,17.53
2023-05-10T03:02:07.906Z,17.41
2023-05-10T03:07:10.323Z,17.21
2023-05-10T03:12:18.404Z,17.11
2023-05-10T03:17:27.060Z,16.93
2023-05-10T03:22:37.914Z,16.86
2023-05-10T03:27:41.771Z,16.65
2023-05-10T03:32:44.087Z,16.57
2023-05-10T03:37:46.397Z,16.58
2023-05-10T03:42:48.609Z,16.30
2023-05-10T03:47:50.653Z,16.31
2023-05-10T03:52:54.104Z,16.38
2023-05-10T03:57:56.661Z,16.31
2023-05-10T04:02:59.125Z,16.30
2023-05-10T04:08:01.158Z,16.08
2023-05-10T04:13:03.405Z,16.10
2023-05-10T04:18:07.996Z,16.06
2023-05-10T04:23:10.762Z,16.04
2023-05-10T04:28:12.932Z,15.89
2023-05-10T04:33:15.603Z,16.01
2023-05-10T04:38:17.537Z,15.93
2023-05-10T04:43:19.928Z,15.82
2023-05-10T04:48:22.054Z,15.76
2023-05-10T04:53:24.084Z,15.66
2023-05-10T04:58:26.337Z,15.57
2023-05-10T05:03:28.675Z,15.30
2023-05-10T05:08:30.738Z,15.27
2023-05-10T05:13:32.751Z,15.07
2023-05-10T05:18:34.979Z,15.15
2023-05-10T05:23:37.373Z,15.09
2023-05-10T05:28:39.664Z,15.33
2023-05-10T05:33:41.890Z,15.40
2023-05-10T05:38:44.374Z,15.37
2023-05-10T05:43:46.382Z,15.29
2023-05-10T05:48:48.655Z,15.30
2023-05-10T05:53:50.583Z,15.29
2023-05-10T05:58:52.791Z,15.25
2023-05-10T06:03:54.981Z,15.29
2023-05-10T06:08:57.007Z,15.27
2023-05-10T06:14:00.485Z,15.31
2023-05-10T06:19:03.403Z,15.43
2023-05-10T06:24:07.796Z,15.36
2023-05-10T06:29:09.700Z,15.37
2023-05-10T06:34:12.984Z,15.50
2023-05-10T06:39:15.179Z,15.62
2023-05-10T06:44:17.223Z,15.65
2023-05-10T06:49:19.192Z,15.75
2023-05-10T06:54:21.199Z,15.85
2023-05-10T06:59:23.279Z,16.15
2023-05-10T07:04:25.993Z,16.21
2023-05-10T07:09:28.051Z,16.42
2023-05-10T07:14:29.974Z,16.51
2023-05-10T07:19:33.828Z,16.94
2023-05-10T07:24:36.009Z,16.84
2023-05-10T07:29:38.657Z,16.86
2023-05-10T07:34:40.772Z,16.88
2023-05-10T07:39:43.968Z,17.02
2023-05-10T07:44:46.810Z,17.06
2023-05-10T07:49:48.808Z,17.10
2023-05-10T07:54:50.766Z,17.12
2023-05-10T07:59:52.806Z,17.39
2023-05-10T08:04:55.180Z,17.59
2023-05-10T08:09:57.289Z,17.79
2023-05-10T08:14:59.487Z,17.98
2023-05-10T08:20:01.808Z,18.20
2023-05-10T08:25:04.415Z,18.58
2023-05-10T08:30:11.362Z,18.88
2023-05-10T08:35:13.400Z,19.31
2023-05-10T08:40:15.939Z,19.76
2023-05-10T08:45:18.699Z,20.96
2023-05-10T08:50:23.154Z,21.66
2023-05-10T08:55:25.738Z,22.48
2023-05-10T09:00:28.792Z,22.36
2023-05-10T09:05:30.983Z,23.36
2023-05-10T09:10:33.269Z,24.15
2023-05-10T09:15:35.569Z,24.25
2023-05-10T09:20:37.523Z,25.09
2023-05-10T09:25:39.963Z,25.18
2023-05-10T09:30:43.963Z,25.51
2023-05-10T09:35:46.291Z,25.25
2023-05-10T09:40:57.938Z,25.93
2023-05-10T09:46:00.062Z,26.32
2023-05-10T09:51:02.127Z,26.75
2023-05-10T09:56:04.364Z,27.36
2023-05-10T10:01:12.561Z,26.98
2023-05-10T10:06:29.515Z,26.97
2023-05-10T10:11:39.649Z,27.33
2023-05-10T10:16:51.644Z,26.96
2023-05-10T10:22:02.167Z,27.73
2023-05-10T10:27:22.370Z,26.86
2023-05-10T10:32:31.596Z,27.20
2023-05-10T10:37:47.458Z,27.38
2023-05-10T10:42:51.109Z,27.21
2023-05-10T10:48:24.447Z,28.09
2023-05-10T10:53:30.164Z,28.28
2023-05-10T10:58:35.295Z,28.86
2023-05-10T11:03:37.651Z,28.99
2023-05-10T11:08:53.819Z,28.62
2023-05-10T11:14:04.682Z,28.65
2023-05-10T11:19:09.450Z,28.71
2023-05-10T11:24:16.573Z,28.78
2023-05-10T11:29:18.892Z,28.61
2023-05-10T11:34:28.035Z,28.10
2023-05-10T11:39:31.528Z,27.23
2023-05-10T11:44:34.031Z,27.56
2023-05-10T11:49:36.109Z,27.57
2023-05-10T11:54:38.397Z,26.85
2023-05-10T11:59:42.467Z,26.63
2023-05-10T12:04:45.175Z,26.28
2023-05-10T12:10:19.018Z,25.57
2023-05-10T12:15:26.044Z,25.30
2023-05-10T12:20:29.078Z,25.10
2023-05-10T12:25:35.946Z,25.44
2023-05-10T12:30:39.063Z,25.14
2023-05-10T12:35:46.885Z,24.74
2023-05-10T12:40:48.760Z,25.03
2023-05-10T12:45:50.946Z,25.20
2023-05-10T12:50:53.093Z,24.73
2023-05-10T12:55:57.680Z,24.51
2023-05-10T13:01:01.341Z,24.61
2023-05-10T13:06:04.291Z,24.58
2023-05-10T13:11:06.864Z,24.42
2023-05-10T13:16:08.896Z,24.77
2023-05-10T13:28:34.782Z,24.38
2023-05-10T13:33:36.786Z,24.36
2023-05-10T13:46:02.732Z,24.47
2023-05-10T13:51:05.057Z,24.33
2023-05-10T13:56:07.726Z,24.36
2023-05-10T14:01:09.734Z,24.55
2023-05-10T14:06:11.979Z,24.63
2023-05-10T14:11:14.098Z,24.64
2023-05-10T14:16:16.152Z,24.50
2023-05-10T14:21:18.106Z,24.40
2023-05-10T14:26:19.989Z,24.38
2023-05-10T14:31:26.531Z,24.66
2023-05-10T14:36:28.665Z,24.54
2023-05-10T14:41:32.057Z,24.55
2023-05-10T14:46:35.674Z,24.51
2023-05-10T14:51:43.497Z,24.68
2023-05-10T14:56:46.194Z,24.97
2023-05-10T15:01:48.266Z,24.86
2023-05-10T15:06:50.818Z,25.03
2023-05-10T15:11:56.651Z,25.12
2023-05-10T15:16:58.579Z,25.11
2023-05-10T15:22:00.599Z,25.26
2023-05-10T15:27:02.683Z,25.47
2023-05-10T15:32:07.778Z,25.57
2023-05-10T15:37:13.818Z,25.55
2023-05-10T15:42:15.923Z,25.31
2023-05-10T15:47:17.948Z,25.33
2023-05-10T15:52:21.184Z,25.61
2023-05-10T15:57:23.997Z,25.54
2023-05-10T16:02:27.809Z,25.69
2023-05-10T16:07:32.599Z,25.73
2023-05-10T16:12:34.788Z,25.76
2023-05-10T16:17:37.444Z,25.60
2023-05-10T16:22:39.722Z,25.44
2023-05-10T16:27:41.749Z,25.41
2023-05-10T16:32:49.007Z,25.29
2023-05-10T16:37:53.568Z,25.25
2023-05-10T16:43:00.501Z,25.12
2023-05-10T16:48:06.327Z,24.99
2023-05-10T16:53:08.200Z,25.02
2023-05-10T16:58:11.768Z,24.92
2023-05-10T17:03:13.918Z,24.85
2023-05-10T17:08:16.654Z,24.79
2023-05-10T17:13:18.919Z,24.65
2023-05-10T17:18:21.261Z,24.74
2023-05-10T17:23:23.177Z,24.58
2023-05-10T17:28:25.469Z,24.61
2023-05-10T17:33:27.469Z,24.45
2023-05-10T17:38:29.603Z,24.22
2023-05-10T17:43:31.762Z,24.13
2023-05-10T17:48:33.941Z,24.17
2023-05-10T17:53:36.066Z,24.10
2023-05-10T17:58:38.577Z,24.02
2023-05-10T18:03:40.625Z,23.97
2023-05-10T18:08:42.724Z,23.87
2023-05-10T18:13:46.564Z,23.72
2023-05-10T18:18:49.151Z,23.68
2023-05-10T18:23:51.019Z,23.59
2023-05-10T18:28:53.017Z,23.47
2023-05-10T18:33:55.120Z,23.29
2023-05-10T18:39:03.726Z,23.14
2023-05-10T18:44:05.821Z,23.06
2023-05-10T18:49:08.522Z,23.07
2023-05-10T18:54:10.429Z,22.88
2023-05-10T18:59:12.973Z,22.76
2023-05-10T19:04:15.308Z,22.64
2023-05-10T19:09:20.209Z,22.69
2023-05-10T19:14:22.692Z,22.63
2023-05-10T19:19:25.551Z,22.54
2023-05-10T19:24:27.551Z,22.40
2023-05-10T19:29:29.448Z,22.18
2023-05-10T19:34:31.473Z,22.04
2023-05-10T19:39:33.522Z,21.98
2023-05-10T19:44:36.151Z,21.79
2023-05-10T19:49:38.829Z,21.79
2023-05-10T19:54:40.947Z,21.63
2023-05-10T19:59:42.919Z,21.52
2023-05-10T20:04:45.197Z,21.39
2023-05-10T20:09:47.145Z,21.29
2023-05-10T20:14:49.071Z,21.21
2023-05-10T20:19:51.002Z,21.05
2023-05-10T20:24:55.760Z,21.05
2023-05-10T20:29:57.989Z,20.92
2023-05-10T20:34:59.896Z,20.85
2023-05-10T20:40:01.893Z,20.74
2023-05-10T20:45:04.585Z,20.63
2023-05-10T20:50:07.336Z,20.49
2023-05-10T20:55:09.668Z,20.36
2023-05-10T21:00:12.281Z,20.31
2023-05-10T21:05:14.157Z,20.28
2023-05-10T21:10:16.193Z,20.19
2023-05-10T21:15:18.337Z,20.11
2023-05-10T21:20:20.310Z,20.00
2023-05-10T21:25:23.430Z,19.95
2023-05-10T21:30:26.167Z,19.83
2023-05-10T21:35:29.515Z,19.85
2023-05-10T21:40:31.467Z,19.73
2023-05-10T21:45:33.550Z,19.76
2023-05-10T21:50:35.656Z,19.77
2023-05-10T21:55:37.596Z,19.60
2023-05-10T22:00:39.568Z,19.62
2023-05-10T22:05:41.717Z,19.51
2023-05-10T22:10:43.705Z,19.49
2023-05-10T22:15:45.950Z,19.42
2023-05-10T22:20:48.164Z,19.26
2023-05-10T22:25:52.234Z,19.24
2023-05-10T22:30:54.460Z,19.17
2023-05-10T22:35:56.674Z,19.03
2023-05-10T22:40:59.806Z,18.88
2023-05-10T22:46:01.964Z,18.79
2023-05-10T22:51:04.198Z,18.79
2023-05-10T22:56:06.659Z,18.65
2023-05-10T23:01:08.849Z,18.38
2023-05-10T23:06:11.199Z,18.31
2023-05-10T23:11:13.657Z,18.02
2023-05-10T23:16:15.939Z,17.96
2023-05-10T23:21:18.408Z,17.91
2023-05-10T23:26:21.958Z,17.70
2023-05-10T23:31:24.092Z,17.71
2023-05-10T23:36:26.569Z,17.40
2023-05-10T23:41:30.856Z,17.27
2023-05-10T23:46:33.408Z,17.29
2023-05-10T23:51:35.394Z,16.93
2023-05-10T23:56:39.222Z,16.89
